sensor_id;sensor_type;location;lat;lon;timestamp;pressure;altitude;pressure_sealevel;temperature;humidity
13612;BME280;6877;51.436;6.774;2023-04-27T00:00:05;101501.22;;;3.17;85.71
13612;BME280;6877;51.436;6.774;2023-04-27T00:02:36;101504.59;;;3.15;86.67
13612;BME280;6877;51.436;6.774;2023-04-27T00:05:08;101502.91;;;3.15;86.18
13612;BME280;6877;51.436;6.774;2023-04-27T00:07:36;101501.63;;;2.99;85.68
13612;BME280;6877;51.436;6.774;2023-04-27T00:10:03;101498.63;;;2.81;86.38
13612;BME280;6877;51.436;6.774;2023-04-27T00:12:29;101503.50;;;2.70;86.67
13612;BME280;6877;51.436;6.774;2023-04-27T00:14:56;101502.22;;;2.54;86.55
13612;BME280;6877;51.436;6.774;2023-04-27T00:17:22;101506.28;;;2.45;87.31
13612;BME280;6877;51.436;6.774;2023-04-27T00:19:53;101506.09;;;2.37;87.64
13612;BME280;6877;51.436;6.774;2023-04-27T00:22:25;101515.56;;;2.37;88.20
13612;BME280;6877;51.436;6.774;2023-04-27T00:24:51;101509.47;;;2.35;88.14
13612;BME280;6877;51.436;6.774;2023-04-27T00:27:23;101502.47;;;2.30;88.04
13612;BME280;6877;51.436;6.774;2023-04-27T00:29:49;101507.41;;;2.23;88.23
13612;BME280;6877;51.436;6.774;2023-04-27T00:32:15;101514.97;;;2.17;89.00
13612;BME280;6877;51.436;6.774;2023-04-27T00:34:47;101510.50;;;2.11;89.54
13612;BME280;6877;51.436;6.774;2023-04-27T00:37:13;101514.78;;;2.09;89.38
13612;BME280;6877;51.436;6.774;2023-04-27T00:39:40;101522.56;;;2.11;90.26
13612;BME280;6877;51.436;6.774;2023-04-27T00:42:12;101519.88;;;2.07;90.09
13612;BME280;6877;51.436;6.774;2023-04-27T00:44:41;101526.56;;;1.99;89.77
13612;BME280;6877;51.436;6.774;2023-04-27T00:47:13;101523.72;;;1.90;90.14
13612;BME280;6877;51.436;6.774;2023-04-27T00:49:45;101521.69;;;1.80;90.34
13612;BME280;6877;51.436;6.774;2023-04-27T00:52:17;101520.75;;;1.78;90.88
13612;BME280;6877;51.436;6.774;2023-04-27T00:54:50;101519.91;;;1.79;91.87
13612;BME280;6877;51.436;6.774;2023-04-27T00:57:21;101520.19;;;1.88;92.16
13612;BME280;6877;51.436;6.774;2023-04-27T00:59:53;101522.94;;;1.94;92.05
13612;BME280;6877;51.436;6.774;2023-04-27T01:02:19;101519.41;;;1.91;91.72
13612;BME280;6877;51.436;6.774;2023-04-27T01:04:47;101516.63;;;1.83;91.72
13612;BME280;6877;51.436;6.774;2023-04-27T01:07:24;101523.53;;;1.84;92.57
13612;BME280;6877;51.436;6.774;2023-04-27T01:09:50;101521.53;;;1.75;92.51
13612;BME280;6877;51.436;6.774;2023-04-27T01:12:22;101525.84;;;1.75;94.16
13612;BME280;6877;51.436;6.774;2023-04-27T01:14:53;101524.38;;;1.83;95.11
13612;BME280;6877;51.436;6.774;2023-04-27T01:17:19;101517.94;;;1.99;95.32
13612;BME280;6877;51.436;6.774;2023-04-27T01:19:47;101517.09;;;2.00;94.89
13612;BME280;6877;51.436;6.774;2023-04-27T01:22:14;101522.47;;;2.07;95.96
13612;BME280;6877;51.436;6.774;2023-04-27T01:24:46;101525.31;;;2.17;95.77
13612;BME280;6877;51.436;6.774;2023-04-27T01:27:14;101529.25;;;2.04;94.25
13612;BME280;6877;51.436;6.774;2023-04-27T01:29:45;101533.88;;;1.85;94.42
13612;BME280;6877;51.436;6.774;2023-04-27T01:32:12;101537.81;;;1.73;95.05
13612;BME280;6877;51.436;6.774;2023-04-27T01:34:38;101535.78;;;1.62;96.06
13612;BME280;6877;51.436;6.774;2023-04-27T01:37:05;101536.34;;;1.52;95.18
13612;BME280;6877;51.436;6.774;2023-04-27T01:39:31;101538.31;;;1.61;97.51
13612;BME280;6877;51.436;6.774;2023-04-27T01:41:58;101532.13;;;1.84;98.38
13612;BME280;6877;51.436;6.774;2023-04-27T01:44:24;101530.78;;;1.97;97.76
13612;BME280;6877;51.436;6.774;2023-04-27T01:46:56;101533.63;;;2.06;97.66
13612;BME280;6877;51.436;6.774;2023-04-27T01:49:22;101535.72;;;2.20;97.51
13612;BME280;6877;51.436;6.774;2023-04-27T01:51:54;101535.00;;;2.24;96.87
13612;BME280;6877;51.436;6.774;2023-04-27T01:54:20;101540.22;;;2.27;96.74
13612;BME280;6877;51.436;6.774;2023-04-27T01:56:51;101541.94;;;2.26;96.27
13612;BME280;6877;51.436;6.774;2023-04-27T01:59:23;101550.31;;;2.18;95.66
13612;BME280;6877;51.436;6.774;2023-04-27T02:01:49;101550.97;;;2.11;96.30
13612;BME280;6877;51.436;6.774;2023-04-27T02:04:15;101552.72;;;2.12;96.73
13612;BME280;6877;51.436;6.774;2023-04-27T02:06:42;101551.75;;;2.08;97.05
13612;BME280;6877;51.436;6.774;2023-04-27T02:09:08;101553.50;;;2.09;97.11
13612;BME280;6877;51.436;6.774;2023-04-27T02:11:34;101552.63;;;2.08;97.62
13612;BME280;6877;51.436;6.774;2023-04-27T02:14:06;101544.16;;;2.13;97.77
13612;BME280;6877;51.436;6.774;2023-04-27T02:16:32;101548.44;;;2.12;97.28
13612;BME280;6877;51.436;6.774;2023-04-27T02:19:04;101548.34;;;2.09;97.62
13612;BME280;6877;51.436;6.774;2023-04-27T02:21:30;101538.09;;;2.12;98.33
13612;BME280;6877;51.436;6.774;2023-04-27T02:24:02;101538.03;;;2.11;98.46
13612;BME280;6877;51.436;6.774;2023-04-27T02:26:29;101537.16;;;2.08;98.33
13612;BME280;6877;51.436;6.774;2023-04-27T02:28:55;101539.91;;;2.15;98.85
13612;BME280;6877;51.436;6.774;2023-04-27T02:31:22;101534.00;;;2.19;98.18
13612;BME280;6877;51.436;6.774;2023-04-27T02:33:53;101536.59;;;2.20;98.29
13612;BME280;6877;51.436;6.774;2023-04-27T02:36:25;101537.41;;;2.18;98.30
13612;BME280;6877;51.436;6.774;2023-04-27T02:38:57;101534.78;;;2.16;98.69
13612;BME280;6877;51.436;6.774;2023-04-27T02:41:32;101534.78;;;2.16;98.83
13612;BME280;6877;51.436;6.774;2023-04-27T02:43:58;101544.25;;;2.17;98.92
13612;BME280;6877;51.436;6.774;2023-04-27T02:46:25;101544.16;;;2.13;98.54
13612;BME280;6877;51.436;6.774;2023-04-27T02:48:57;101541.47;;;2.09;98.96
13612;BME280;6877;51.436;6.774;2023-04-27T02:51:28;101535.47;;;2.11;98.95
13612;BME280;6877;51.436;6.774;2023-04-27T02:53:59;101529.44;;;2.10;98.61
13612;BME280;6877;51.436;6.774;2023-04-27T02:56:26;101532.84;;;2.09;98.69
13612;BME280;6877;51.436;6.774;2023-04-27T02:58:57;101534.50;;;2.07;98.72
13612;BME280;6877;51.436;6.774;2023-04-27T03:01:24;101540.38;;;2.01;98.55
13612;BME280;6877;51.436;6.774;2023-04-27T03:03:50;101528.28;;;2.00;99.50
13612;BME280;6877;51.436;6.774;2023-04-27T03:06:21;101528.50;;;2.08;99.59
13612;BME280;6877;51.436;6.774;2023-04-27T03:08:53;101526.72;;;2.05;99.37
13612;BME280;6877;51.436;6.774;2023-04-27T03:11:19;101511.25;;;2.05;99.43
13612;BME280;6877;51.436;6.774;2023-04-27T03:13:51;101511.25;;;2.05;99.30
13612;BME280;6877;51.436;6.774;2023-04-27T03:16:17;101508.66;;;2.05;99.26
13612;BME280;6877;51.436;6.774;2023-04-27T03:18:48;101514.59;;;2.03;99.49
13612;BME280;6877;51.436;6.774;2023-04-27T03:21:15;101510.38;;;2.05;99.47
13612;BME280;6877;51.436;6.774;2023-04-27T03:23:49;101508.00;;;2.13;98.81
13612;BME280;6877;51.436;6.774;2023-04-27T03:26:21;101510.75;;;2.19;98.41
13612;BME280;6877;51.436;6.774;2023-04-27T03:28:52;101513.50;;;2.25;97.93
13612;BME280;6877;51.436;6.774;2023-04-27T03:31:23;101516.94;;;2.24;97.33
13612;BME280;6877;51.436;6.774;2023-04-27T03:33:55;101518.75;;;2.28;97.19
13612;BME280;6877;51.436;6.774;2023-04-27T03:36:27;101522.16;;;2.27;96.72
13612;BME280;6877;51.436;6.774;2023-04-27T03:38:58;101518.91;;;2.34;96.13
13612;BME280;6877;51.436;6.774;2023-04-27T03:41:25;101523.06;;;2.29;95.85
13612;BME280;6877;51.436;6.774;2023-04-27T03:43:51;101529.09;;;2.28;95.74
13612;BME280;6877;51.436;6.774;2023-04-27T03:46:23;101519.53;;;2.25;95.54
13612;BME280;6877;51.436;6.774;2023-04-27T03:48:50;101523.22;;;2.34;94.99
13612;BME280;6877;51.436;6.774;2023-04-27T03:51:16;101524.28;;;2.42;94.17
13612;BME280;6877;51.436;6.774;2023-04-27T03:53:43;101522.56;;;2.42;93.67
13612;BME280;6877;51.436;6.774;2023-04-27T03:56:14;101526.19;;;2.49;93.32
13612;BME280;6877;51.436;6.774;2023-04-27T03:58:46;101527.81;;;2.45;93.25
13612;BME280;6877;51.436;6.774;2023-04-27T04:01:12;101527.91;;;2.48;93.31
13612;BME280;6877;51.436;6.774;2023-04-27T04:03:44;101532.34;;;2.52;92.93
13612;BME280;6877;51.436;6.774;2023-04-27T04:06:12;101540.00;;;2.49;92.95
13612;BME280;6877;51.436;6.774;2023-04-27T04:08:44;101545.19;;;2.49;93.08
13612;BME280;6877;51.436;6.774;2023-04-27T04:11:15;101546.00;;;2.48;93.13
13612;BME280;6877;51.436;6.774;2023-04-27T04:13:41;101544.13;;;2.43;93.19
13612;BME280;6877;51.436;6.774;2023-04-27T04:16:14;101546.50;;;2.35;93.48
13612;BME280;6877;51.436;6.774;2023-04-27T04:18:40;101548.03;;;2.28;94.26
13612;BME280;6877;51.436;6.774;2023-04-27T04:21:11;101553.13;;;2.27;94.92
13612;BME280;6877;51.436;6.774;2023-04-27T04:23:38;101559.13;;;2.24;94.92
13612;BME280;6877;51.436;6.774;2023-04-27T04:26:06;101553.09;;;2.24;95.20
13612;BME280;6877;51.436;6.774;2023-04-27T04:28:38;101548.78;;;2.24;95.41
13612;BME280;6877;51.436;6.774;2023-04-27T04:31:05;101551.56;;;2.32;95.13
13612;BME280;6877;51.436;6.774;2023-04-27T04:33:33;101551.91;;;2.44;94.51
13612;BME280;6877;51.436;6.774;2023-04-27T04:36:04;101550.44;;;2.52;94.22
13612;BME280;6877;51.436;6.774;2023-04-27T04:38:31;101547.28;;;2.64;93.76
13612;BME280;6877;51.436;6.774;2023-04-27T04:40:58;101552.75;;;2.75;92.88
13612;BME280;6877;51.436;6.774;2023-04-27T04:43:29;101551.97;;;2.77;92.72
13612;BME280;6877;51.436;6.774;2023-04-27T04:46:01;101554.47;;;2.76;92.87
13612;BME280;6877;51.436;6.774;2023-04-27T04:48:27;101550.31;;;2.81;92.67
13612;BME280;6877;51.436;6.774;2023-04-27T04:50:59;101549.56;;;2.85;92.52
13612;BME280;6877;51.436;6.774;2023-04-27T04:53:30;101547.97;;;2.90;92.36
13612;BME280;6877;51.436;6.774;2023-04-27T04:56:12;101550.81;;;3.01;92.27
13612;BME280;6877;51.436;6.774;2023-04-27T04:58:39;101557.28;;;3.18;91.43
13612;BME280;6877;51.436;6.774;2023-04-27T05:01:05;101561.94;;;3.33;90.81
13612;BME280;6877;51.436;6.774;2023-04-27T05:03:32;101567.50;;;3.48;90.37
13612;BME280;6877;51.436;6.774;2023-04-27T05:06:04;101561.81;;;3.65;89.13
13612;BME280;6877;51.436;6.774;2023-04-27T05:08:30;101572.31;;;3.71;88.32
13612;BME280;6877;51.436;6.774;2023-04-27T05:10:57;101573.16;;;3.70;88.48
13612;BME280;6877;51.436;6.774;2023-04-27T05:13:28;101579.28;;;3.74;88.32
13612;BME280;6877;51.436;6.774;2023-04-27T05:15:55;101575.06;;;3.77;87.95
13612;BME280;6877;51.436;6.774;2023-04-27T05:18:21;101577.78;;;3.83;87.75
13612;BME280;6877;51.436;6.774;2023-04-27T05:20:47;101579.59;;;3.87;87.55
13612;BME280;6877;51.436;6.774;2023-04-27T05:23:16;101587.53;;;3.95;87.28
13612;BME280;6877;51.436;6.774;2023-04-27T05:25:43;101590.41;;;4.09;86.79
13612;BME280;6877;51.436;6.774;2023-04-27T05:28:09;101598.44;;;4.21;86.40
13612;BME280;6877;51.436;6.774;2023-04-27T05:30:41;101589.53;;;4.51;85.13
13612;BME280;6877;51.436;6.774;2023-04-27T05:33:12;101591.06;;;4.83;83.48
13612;BME280;6877;51.436;6.774;2023-04-27T05:35:39;101597.88;;;5.28;81.66
13612;BME280;6877;51.436;6.774;2023-04-27T05:38:05;101603.03;;;5.81;79.95
13612;BME280;6877;51.436;6.774;2023-04-27T05:40:31;101595.72;;;6.12;76.74
13612;BME280;6877;51.436;6.774;2023-04-27T05:42:58;101600.28;;;6.33;75.52
13612;BME280;6877;51.436;6.774;2023-04-27T05:45:31;101596.41;;;6.70;74.52
13612;BME280;6877;51.436;6.774;2023-04-27T05:48:03;101592.47;;;7.12;72.16
13612;BME280;6877;51.436;6.774;2023-04-27T05:50:34;101604.91;;;7.41;71.29
13612;BME280;6877;51.436;6.774;2023-04-27T05:53:00;101613.91;;;7.86;69.29
13612;BME280;6877;51.436;6.774;2023-04-27T05:55:27;101606.47;;;8.63;66.55
13612;BME280;6877;51.436;6.774;2023-04-27T05:57:53;101609.22;;;9.21;63.93
13612;BME280;6877;51.436;6.774;2023-04-27T06:00:25;101610.91;;;8.93;61.75
13612;BME280;6877;51.436;6.774;2023-04-27T06:02:51;101614.31;;;8.64;62.58
13612;BME280;6877;51.436;6.774;2023-04-27T06:05:22;101621.81;;;7.98;64.66
13612;BME280;6877;51.436;6.774;2023-04-27T06:07:49;101625.19;;;7.88;65.61
13612;BME280;6877;51.436;6.774;2023-04-27T06:10:20;101616.41;;;7.72;65.43
13612;BME280;6877;51.436;6.774;2023-04-27T06:12:47;101607.53;;;7.44;65.63
13612;BME280;6877;51.436;6.774;2023-04-27T06:15:13;101607.53;;;7.44;65.69
13612;BME280;6877;51.436;6.774;2023-04-27T06:17:39;101616.44;;;7.74;64.63
13612;BME280;6877;51.436;6.774;2023-04-27T06:20:06;101602.69;;;7.95;63.80
13612;BME280;6877;51.436;6.774;2023-04-27T06:22:34;101607.88;;;7.96;63.28
13612;BME280;6877;51.436;6.774;2023-04-27T06:25:07;101617.47;;;8.03;63.01
13612;BME280;6877;51.436;6.774;2023-04-27T06:27:33;101609.69;;;8.12;62.26
13612;BME280;6877;51.436;6.774;2023-04-27T06:30:00;101618.41;;;8.11;61.71
13612;BME280;6877;51.436;6.774;2023-04-27T06:32:32;101619.25;;;8.09;60.81
13612;BME280;6877;51.436;6.774;2023-04-27T06:34:58;101622.72;;;8.08;59.43
13612;BME280;6877;51.436;6.774;2023-04-27T06:37:24;101615.75;;;8.05;58.75
13612;BME280;6877;51.436;6.774;2023-04-27T06:39:51;101621.78;;;8.00;58.49
13612;BME280;6877;51.436;6.774;2023-04-27T06:42:17;101620.16;;;8.16;57.99
13612;BME280;6877;51.436;6.774;2023-04-27T06:44:54;101610.75;;;8.41;57.50
13612;BME280;6877;51.436;6.774;2023-04-27T06:47:21;101622.19;;;8.78;55.80
13612;BME280;6877;51.436;6.774;2023-04-27T06:49:48;101612.63;;;8.80;54.42
13612;BME280;6877;51.436;6.774;2023-04-27T06:52:15;101612.66;;;8.91;53.73
13612;BME280;6877;51.436;6.774;2023-04-27T06:54:46;101616.16;;;9.07;53.88
13612;BME280;6877;51.436;6.774;2023-04-27T06:57:18;101615.28;;;9.64;52.69
13612;BME280;6877;51.436;6.774;2023-04-27T06:59:50;101625.66;;;10.13;50.55
13612;BME280;6877;51.436;6.774;2023-04-27T07:02:16;101615.91;;;10.64;49.28
13612;BME280;6877;51.436;6.774;2023-04-27T07:04:43;101619.34;;;10.76;48.30
13612;BME280;6877;51.436;6.774;2023-04-27T07:07:09;101608.53;;;11.25;46.63
13612;BME280;6877;51.436;6.774;2023-04-27T07:09:36;101612.69;;;11.55;45.89
13612;BME280;6877;51.436;6.774;2023-04-27T07:12:02;101612.63;;;11.61;45.47
13612;BME280;6877;51.436;6.774;2023-04-27T07:14:29;101611.69;;;11.65;45.67
13612;BME280;6877;51.436;6.774;2023-04-27T07:16:55;101620.47;;;11.64;45.16
13612;BME280;6877;51.436;6.774;2023-04-27T07:19:22;101611.00;;;11.48;45.78
13612;BME280;6877;51.436;6.774;2023-04-27T07:21:53;101605.88;;;11.32;45.96
13612;BME280;6877;51.436;6.774;2023-04-27T07:24:19;101610.25;;;11.30;46.53
13612;BME280;6877;51.436;6.774;2023-04-27T07:26:46;101614.25;;;11.74;45.79
13612;BME280;6877;51.436;6.774;2023-04-27T07:29:13;101615.69;;;12.06;44.46
13612;BME280;6877;51.436;6.774;2023-04-27T07:31:41;101617.50;;;12.01;44.41
13612;BME280;6877;51.436;6.774;2023-04-27T07:34:07;101634.91;;;12.11;43.97
13612;BME280;6877;51.436;6.774;2023-04-27T07:36:36;101622.81;;;11.96;44.23
13612;BME280;6877;51.436;6.774;2023-04-27T07:39:03;101619.88;;;12.22;43.76
13612;BME280;6877;51.436;6.774;2023-04-27T07:41:34;101619.53;;;13.15;41.64
13612;BME280;6877;51.436;6.774;2023-04-27T07:44:06;101616.06;;;13.67;40.45
13612;BME280;6877;51.436;6.774;2023-04-27T07:46:32;101613.06;;;14.35;39.32
13612;BME280;6877;51.436;6.774;2023-04-27T07:48:59;101619.13;;;14.37;37.78
13612;BME280;6877;51.436;6.774;2023-04-27T07:51:26;101618.59;;;14.65;37.12
13612;BME280;6877;51.436;6.774;2023-04-27T07:53:53;101614.72;;;15.18;36.03
13612;BME280;6877;51.436;6.774;2023-04-27T07:56:20;101621.84;;;16.50;34.32
13612;BME280;6877;51.436;6.774;2023-04-27T07:58:47;101622.00;;;18.57;30.53
13612;BME280;6877;51.436;6.774;2023-04-27T08:01:15;101624.13;;;19.16;29.29
13612;BME280;6877;51.436;6.774;2023-04-27T08:03:42;101631.09;;;20.03;27.29
13612;BME280;6877;51.436;6.774;2023-04-27T08:06:08;101629.38;;;21.54;25.53
13612;BME280;6877;51.436;6.774;2023-04-27T08:08:35;101625.44;;;21.95;24.34
13612;BME280;6877;51.436;6.774;2023-04-27T08:11:02;101623.09;;;23.81;22.62
13612;BME280;6877;51.436;6.774;2023-04-27T08:13:28;101626.66;;;24.82;21.25
13612;BME280;6877;51.436;6.774;2023-04-27T08:15:55;101627.53;;;24.39;20.94
13612;BME280;6877;51.436;6.774;2023-04-27T08:18:25;101619.09;;;23.58;20.94
13612;BME280;6877;51.436;6.774;2023-04-27T08:20:52;101608.72;;;25.51;20.11
13612;BME280;6877;51.436;6.774;2023-04-27T08:23:19;101622.06;;;26.67;18.64
13612;BME280;6877;51.436;6.774;2023-04-27T08:25:46;101616.41;;;28.02;17.39
13612;BME280;6877;51.436;6.774;2023-04-27T08:28:17;101614.47;;;28.71;16.82
13612;BME280;6877;51.436;6.774;2023-04-27T08:30:52;101609.72;;;29.71;15.97
13612;BME280;6877;51.436;6.774;2023-04-27T08:33:18;101612.09;;;28.89;16.00
13612;BME280;6877;51.436;6.774;2023-04-27T08:35:45;101615.19;;;28.06;16.78
13612;BME280;6877;51.436;6.774;2023-04-27T08:38:11;101603.38;;;28.97;16.28
13612;BME280;6877;51.436;6.774;2023-04-27T08:40:44;101612.81;;;29.67;15.61
13612;BME280;6877;51.436;6.774;2023-04-27T08:43:14;101605.69;;;26.08;17.11
13612;BME280;6877;51.436;6.774;2023-04-27T08:45:51;101597.38;;;26.62;17.09
13612;BME280;6877;51.436;6.774;2023-04-27T08:48:18;101598.88;;;26.53;17.25
13612;BME280;6877;51.436;6.774;2023-04-27T08:50:48;101595.28;;;26.03;17.79
13612;BME280;6877;51.436;6.774;2023-04-27T08:53:21;101589.22;;;25.61;18.48
13612;BME280;6877;51.436;6.774;2023-04-27T08:55:53;101591.41;;;25.82;17.66
13612;BME280;6877;51.436;6.774;2023-04-27T08:58:21;101598.06;;;25.89;18.05
13612;BME280;6877;51.436;6.774;2023-04-27T09:00:53;101604.78;;;25.16;17.87
13612;BME280;6877;51.436;6.774;2023-04-27T09:03:23;101592.88;;;23.34;19.44
13612;BME280;6877;51.436;6.774;2023-04-27T09:05:55;101584.75;;;22.74;20.48
13612;BME280;6877;51.436;6.774;2023-04-27T09:08:21;101582.06;;;22.42;20.81
13612;BME280;6877;51.436;6.774;2023-04-27T09:10:51;101573.81;;;22.63;20.85
13612;BME280;6877;51.436;6.774;2023-04-27T09:13:20;101577.88;;;22.86;20.45
13612;BME280;6877;51.436;6.774;2023-04-27T09:15:52;101574.59;;;23.12;19.84
13612;BME280;6877;51.436;6.774;2023-04-27T09:18:20;101578.13;;;21.83;21.05
13612;BME280;6877;51.436;6.774;2023-04-27T09:20:52;101577.47;;;21.95;21.04
13612;BME280;6877;51.436;6.774;2023-04-27T09:23:37;101573.81;;;22.95;19.67
13612;BME280;6877;51.436;6.774;2023-04-27T09:26:05;101583.97;;;23.64;18.75
13612;BME280;6877;51.436;6.774;2023-04-27T09:28:37;101581.63;;;23.13;18.76
13612;BME280;6877;51.436;6.774;2023-04-27T09:31:04;101581.38;;;23.48;19.01
13612;BME280;6877;51.436;6.774;2023-04-27T09:33:33;101574.44;;;24.47;18.14
13612;BME280;6877;51.436;6.774;2023-04-27T09:36:01;101571.66;;;23.47;18.79
13612;BME280;6877;51.436;6.774;2023-04-27T09:38:33;101577.69;;;22.41;19.71
13612;BME280;6877;51.436;6.774;2023-04-27T09:41:00;101566.75;;;22.30;19.83
13612;BME280;6877;51.436;6.774;2023-04-27T09:43:32;101570.63;;;22.40;19.49
13612;BME280;6877;51.436;6.774;2023-04-27T09:46:03;101559.78;;;22.59;19.71
13612;BME280;6877;51.436;6.774;2023-04-27T09:48:30;101567.06;;;23.19;18.74
13612;BME280;6877;51.436;6.774;2023-04-27T09:50:57;101570.84;;;23.31;18.33
13612;BME280;6877;51.436;6.774;2023-04-27T09:53:28;101560.41;;;22.80;18.72
13612;BME280;6877;51.436;6.774;2023-04-27T09:56:35;101561.84;;;22.23;19.31
13612;BME280;6877;51.436;6.774;2023-04-27T10:01:47;101548.53;;;21.37;21.16
13612;BME280;6877;51.436;6.774;2023-04-27T10:07:07;101549.97;;;21.44;20.56
13612;BME280;6877;51.436;6.774;2023-04-27T10:09:43;101550.16;;;21.22;20.90
13612;BME280;6877;51.436;6.774;2023-04-27T10:12:41;101545.66;;;21.92;20.29
13612;BME280;6877;51.436;6.774;2023-04-27T10:15:12;101542.75;;;22.78;19.64
13612;BME280;6877;51.436;6.774;2023-04-27T10:17:51;101538.13;;;23.72;18.44
13612;BME280;6877;51.436;6.774;2023-04-27T10:20:30;101544.44;;;23.41;17.84
13612;BME280;6877;51.436;6.774;2023-04-27T10:23:02;101539.88;;;23.12;18.33
13612;BME280;6877;51.436;6.774;2023-04-27T10:25:36;101534.16;;;22.41;19.15
13612;BME280;6877;51.436;6.774;2023-04-27T10:28:14;101526.41;;;22.03;18.53
13612;BME280;6877;51.436;6.774;2023-04-27T10:30:44;101527.75;;;21.79;18.84
13612;BME280;6877;51.436;6.774;2023-04-27T10:33:22;101523.66;;;22.38;18.08
13612;BME280;6877;51.436;6.774;2023-04-27T10:35:55;101524.69;;;22.67;18.15
13612;BME280;6877;51.436;6.774;2023-04-27T10:38:28;101531.13;;;22.95;17.92
13612;BME280;6877;51.436;6.774;2023-04-27T10:41:01;101524.25;;;22.59;17.92
13612;BME280;6877;51.436;6.774;2023-04-27T10:43:30;101519.00;;;21.92;18.78
13612;BME280;6877;51.436;6.774;2023-04-27T10:46:26;101527.22;;;21.37;19.16
13612;BME280;6877;51.436;6.774;2023-04-27T10:48:54;101516.47;;;21.56;19.22
13612;BME280;6877;51.436;6.774;2023-04-27T10:51:25;101511.38;;;22.35;18.59
13612;BME280;6877;51.436;6.774;2023-04-27T10:53:52;101512.19;;;22.83;17.71
13612;BME280;6877;51.436;6.774;2023-04-27T10:56:23;101512.13;;;22.21;18.46
13612;BME280;6877;51.436;6.774;2023-04-27T10:59:01;101510.38;;;22.84;17.96
13612;BME280;6877;51.436;6.774;2023-04-27T11:01:34;101514.06;;;24.15;16.82
13612;BME280;6877;51.436;6.774;2023-04-27T11:04:02;101514.22;;;23.54;17.52
13612;BME280;6877;51.436;6.774;2023-04-27T11:06:29;101509.91;;;22.12;19.07
13612;BME280;6877;51.436;6.774;2023-04-27T11:08:58;101503.66;;;21.97;18.81
13612;BME280;6877;51.436;6.774;2023-04-27T11:11:26;101503.00;;;20.90;19.67
13612;BME280;6877;51.436;6.774;2023-04-27T11:13:53;101506.94;;;20.64;19.87
13612;BME280;6877;51.436;6.774;2023-04-27T11:16:21;101507.59;;;20.86;19.96
13612;BME280;6877;51.436;6.774;2023-04-27T11:18:48;101504.63;;;20.75;19.94
13612;BME280;6877;51.436;6.774;2023-04-27T11:21:19;101516.00;;;20.41;20.08
13612;BME280;6877;51.436;6.774;2023-04-27T11:23:47;101502.44;;;20.28;20.23
13612;BME280;6877;51.436;6.774;2023-04-27T11:26:20;101496.09;;;20.49;20.40
13612;BME280;6877;51.436;6.774;2023-04-27T11:29:06;101495.22;;;19.92;20.32
13612;BME280;6877;51.436;6.774;2023-04-27T11:34:06;101488.66;;;18.09;22.80
13612;BME280;6877;51.436;6.774;2023-04-27T11:36:37;101485.38;;;17.29;24.21
13612;BME280;6877;51.436;6.774;2023-04-27T11:39:03;101483.22;;;17.15;24.50
13612;BME280;6877;51.436;6.774;2023-04-27T11:41:32;101479.00;;;16.83;24.42
13612;BME280;6877;51.436;6.774;2023-04-27T11:44:08;101479.63;;;16.91;23.82
13612;BME280;6877;51.436;6.774;2023-04-27T11:46:36;101479.06;;;16.81;22.89
13612;BME280;6877;51.436;6.774;2023-04-27T11:49:03;101469.13;;;16.33;24.58
13612;BME280;6877;51.436;6.774;2023-04-27T11:51:31;101465.88;;;15.95;25.38
13612;BME280;6877;51.436;6.774;2023-04-27T11:54:03;101463.66;;;15.80;25.96
13612;BME280;6877;51.436;6.774;2023-04-27T11:56:41;101457.19;;;15.59;25.98
13612;BME280;6877;51.436;6.774;2023-04-27T11:59:21;101460.69;;;14.94;26.73
13612;BME280;6877;51.436;6.774;2023-04-27T12:01:52;101453.41;;;14.70;27.37
13612;BME280;6877;51.436;6.774;2023-04-27T12:04:19;101442.84;;;14.70;27.45
13612;BME280;6877;51.436;6.774;2023-04-27T12:06:45;101441.78;;;14.77;27.36
13612;BME280;6877;51.436;6.774;2023-04-27T12:09:12;101442.88;;;14.68;27.21
13612;BME280;6877;51.436;6.774;2023-04-27T12:11:38;101447.06;;;14.77;26.81
13612;BME280;6877;51.436;6.774;2023-04-27T12:14:05;101449.69;;;14.77;26.64
13612;BME280;6877;51.436;6.774;2023-04-27T12:16:32;101442.56;;;14.43;26.63
13612;BME280;6877;51.436;6.774;2023-04-27T12:18:59;101438.22;;;14.42;26.75
13612;BME280;6877;51.436;6.774;2023-04-27T12:21:25;101437.72;;;14.64;26.51
13612;BME280;6877;51.436;6.774;2023-04-27T12:23:51;101434.03;;;14.71;26.59
13612;BME280;6877;51.436;6.774;2023-04-27T12:26:18;101443.88;;;14.64;26.66
13612;BME280;6877;51.436;6.774;2023-04-27T12:28:50;101426.47;;;14.57;27.51
13612;BME280;6877;51.436;6.774;2023-04-27T12:31:16;101428.16;;;14.95;27.41
13612;BME280;6877;51.436;6.774;2023-04-27T12:33:47;101418.38;;;15.32;27.06
13612;BME280;6877;51.436;6.774;2023-04-27T12:36:17;101429.16;;;15.55;26.63
13612;BME280;6877;51.436;6.774;2023-04-27T12:38:43;101422.03;;;15.59;26.70
13612;BME280;6877;51.436;6.774;2023-04-27T12:41:09;101419.84;;;15.74;26.26
13612;BME280;6877;51.436;6.774;2023-04-27T12:43:41;101416.78;;;15.88;25.95
13612;BME280;6877;51.436;6.774;2023-04-27T12:46:13;101420.41;;;16.14;25.88
13612;BME280;6877;51.436;6.774;2023-04-27T12:48:40;101417.66;;;16.17;25.66
13612;BME280;6877;51.436;6.774;2023-04-27T12:51:06;101409.13;;;16.37;25.54
13612;BME280;6877;51.436;6.774;2023-04-27T12:53:38;101421.50;;;16.63;25.00
13612;BME280;6877;51.436;6.774;2023-04-27T12:56:04;101419.50;;;16.15;25.53
13612;BME280;6877;51.436;6.774;2023-04-27T12:58:31;101408.56;;;15.99;25.76
13612;BME280;6877;51.436;6.774;2023-04-27T13:00:57;101409.03;;;15.84;25.78
13612;BME280;6877;51.436;6.774;2023-04-27T13:03:29;101407.56;;;15.42;26.03
13612;BME280;6877;51.436;6.774;2023-04-27T13:06:01;101420.31;;;15.25;26.98
13612;BME280;6877;51.436;6.774;2023-04-27T13:08:27;101421.31;;;14.88;26.69
13612;BME280;6877;51.436;6.774;2023-04-27T13:10:54;101412.97;;;14.71;26.81
13612;BME280;6877;51.436;6.774;2023-04-27T13:13:20;101415.59;;;14.71;26.92
13612;BME280;6877;51.436;6.774;2023-04-27T13:15:52;101412.94;;;14.72;26.73
13612;BME280;6877;51.436;6.774;2023-04-27T13:18:18;101418.94;;;14.77;26.71
13612;BME280;6877;51.436;6.774;2023-04-27T13:20:46;101414.91;;;14.98;26.88
13612;BME280;6877;51.436;6.774;2023-04-27T13:23:20;101407.88;;;14.97;27.27